sensor_id;sensor_type;location;lat;lon;timestamp;pressure;altitude;pressure_sealevel;temperature;humidity
77227;BME280;66234;47.642;19.144;2023-01-05T00:00:15;100766.75;;;5.96;91.06
77227;BME280;66234;47.642;19.144;2023-01-05T00:03:18;100741.91;;;5.97;91.27
77227;BME280;66234;47.642;19.144;2023-01-05T00:06:20;100752.53;;;5.97;91.85
77227;BME280;66234;47.642;19.144;2023-01-05T00:09:23;100742.22;;;5.94;92.06
77227;BME280;66234;47.642;19.144;2023-01-05T00:12:26;100737.44;;;5.89;91.90
77227;BME280;66234;47.642;19.144;2023-01-05T00:15:46;100714.84;;;5.85;92.18
77227;BME280;66234;47.642;19.144;2023-01-05T00:19:10;100702.53;;;5.76;92.54
77227;BME280;66234;47.642;19.144;2023-01-05T00:22:35;100716.47;;;5.70;92.95
77227;BME280;66234;47.642;19.144;2023-01-05T00:25:40;100721.09;;;5.68;92.98
77227;BME280;66234;47.642;19.144;2023-01-05T00:28:43;100733.41;;;5.69;93.38
77227;BME280;66234;47.642;19.144;2023-01-05T00:31:45;100722.13;;;5.75;93.21
77227;BME280;66234;47.642;19.144;2023-01-05T00:34:48;100730.56;;;5.79;93.36
77227;BME280;66234;47.642;19.144;2023-01-05T00:37:52;100723.66;;;5.86;92.62
77227;BME280;66234;47.642;19.144;2023-01-05T00:40:54;100724.16;;;5.89;92.74
77227;BME280;66234;47.642;19.144;2023-01-05T00:43:57;100742.06;;;5.95;92.58
77227;BME280;66234;47.642;19.144;2023-01-05T00:47:00;100737.72;;;5.94;92.72
77227;BME280;66234;47.642;19.144;2023-01-05T00:50:03;100704.06;;;5.95;92.48
77227;BME280;66234;47.642;19.144;2023-01-05T00:53:06;100730.94;;;5.92;92.55
77227;BME280;66234;47.642;19.144;2023-01-05T00:56:08;100726.94;;;5.96;92.60
77227;BME280;66234;47.642;19.144;2023-01-05T00:59:11;100721.47;;;5.97;92.71
77227;BME280;66234;47.642;19.144;2023-01-05T01:02:13;100725.97;;;5.97;92.55
77227;BME280;66234;47.642;19.144;2023-01-05T01:05:16;100734.91;;;5.96;92.78
77227;BME280;66234;47.642;19.144;2023-01-05T01:08:20;100742.22;;;6.02;92.66
77227;BME280;66234;47.642;19.144;2023-01-05T01:11:22;100738.91;;;6.00;92.97
77227;BME280;66234;47.642;19.144;2023-01-05T01:14:25;100738.41;;;5.96;92.97
77227;BME280;66234;47.642;19.144;2023-01-05T01:17:30;100735.09;;;6.02;92.96
77227;BME280;66234;47.642;19.144;2023-01-05T01:20:32;100718.50;;;6.08;92.81
77227;BME280;66234;47.642;19.144;2023-01-05T01:23:36;100723.28;;;6.13;92.72
77227;BME280;66234;47.642;19.144;2023-01-05T01:26:39;100709.56;;;6.09;92.83
77227;BME280;66234;47.642;19.144;2023-01-05T01:29:41;100713.19;;;6.24;91.93
77227;BME280;66234;47.642;19.144;2023-01-05T01:32:44;100688.94;;;6.35;91.71
77227;BME280;66234;47.642;19.144;2023-01-05T01:35:46;100683.63;;;6.43;91.60
77227;BME280;66234;47.642;19.144;2023-01-05T01:38:49;100692.53;;;6.50;91.04
77227;BME280;66234;47.642;19.144;2023-01-05T01:41:51;100680.38;;;6.56;90.86
77227;BME280;66234;47.642;19.144;2023-01-05T01:48:04;100681.56;;;6.61;90.52
77227;BME280;66234;47.642;19.144;2023-01-05T01:51:12;100684.81;;;6.71;90.60
77227;BME280;66234;47.642;19.144;2023-01-05T01:54:16;100682.84;;;6.73;90.47
77227;BME280;66234;47.642;19.144;2023-01-05T01:57:19;100665.53;;;6.78;90.18
77227;BME280;66234;47.642;19.144;2023-01-05T02:00:23;100651.44;;;6.77;89.77
77227;BME280;66234;47.642;19.144;2023-01-05T02:03:27;100651.94;;;6.81;89.59
77227;BME280;66234;47.642;19.144;2023-01-05T02:06:30;100654.41;;;6.82;89.56
77227;BME280;66234;47.642;19.144;2023-01-05T02:09:33;100657.06;;;6.82;90.19
77227;BME280;66234;47.642;19.144;2023-01-05T02:13:12;100649.75;;;6.76;90.03
77227;BME280;66234;47.642;19.144;2023-01-05T02:16:34;100641.63;;;6.78;90.49
77227;BME280;66234;47.642;19.144;2023-01-05T02:20:46;100653.59;;;6.73;90.39
77227;BME280;66234;47.642;19.144;2023-01-05T02:30:59;100624.53;;;6.72;90.38
77227;BME280;66234;47.642;19.144;2023-01-05T02:34:35;100639.81;;;6.70;90.91
77227;BME280;66234;47.642;19.144;2023-01-05T02:37:46;100623.88;;;6.70;90.84
77227;BME280;66234;47.642;19.144;2023-01-05T02:40:54;100612.56;;;6.76;90.38
77227;BME280;66234;47.642;19.144;2023-01-05T02:43:59;100598.28;;;6.77;90.09
77227;BME280;66234;47.642;19.144;2023-01-05T02:50:55;100599.41;;;6.83;90.12
77227;BME280;66234;47.642;19.144;2023-01-05T02:54:10;100592.41;;;6.90;90.08
77227;BME280;66234;47.642;19.144;2023-01-05T02:57:19;100593.38;;;6.89;90.32
77227;BME280;66234;47.642;19.144;2023-01-05T03:00:59;100585.41;;;6.89;90.04
77227;BME280;66234;47.642;19.144;2023-01-05T03:04:08;100585.06;;;6.92;90.71
77227;BME280;66234;47.642;19.144;2023-01-05T03:07:22;100581.59;;;6.91;90.68
77227;BME280;66234;47.642;19.144;2023-01-05T03:10:28;100571.78;;;6.92;90.88
77227;BME280;66234;47.642;19.144;2023-01-05T03:13:58;100564.47;;;6.94;91.22
77227;BME280;66234;47.642;19.144;2023-01-05T03:17:03;100570.63;;;6.94;91.47
77227;BME280;66234;47.642;19.144;2023-01-05T03:20:08;100579.06;;;6.98;91.60
77227;BME280;66234;47.642;19.144;2023-01-05T03:23:15;100573.22;;;7.02;92.26
77227;BME280;66234;47.642;19.144;2023-01-05T03:26:38;100559.94;;;7.02;92.17
77227;BME280;66234;47.642;19.144;2023-01-05T03:30:00;100550.09;;;7.03;92.07
77227;BME280;66234;47.642;19.144;2023-01-05T03:33:30;100528.22;;;7.01;91.69
77227;BME280;66234;47.642;19.144;2023-01-05T03:36:59;100503.50;;;6.92;91.99
77227;BME280;66234;47.642;19.144;2023-01-05T03:40:06;100490.81;;;6.80;92.10
77227;BME280;66234;47.642;19.144;2023-01-05T03:43:12;100476.28;;;6.67;92.33
77227;BME280;66234;47.642;19.144;2023-01-05T03:46:20;100472.84;;;6.59;92.05
77227;BME280;66234;47.642;19.144;2023-01-05T03:49:23;100481.31;;;6.54;92.55
77227;BME280;66234;47.642;19.144;2023-01-05T03:52:26;100475.25;;;6.46;92.78
77227;BME280;66234;47.642;19.144;2023-01-05T03:55:29;100473.13;;;6.41;92.84
77227;BME280;66234;47.642;19.144;2023-01-05T03:58:32;100474.78;;;6.42;92.99
77227;BME280;66234;47.642;19.144;2023-01-05T04:01:35;100477.44;;;6.42;92.98
77227;BME280;66234;47.642;19.144;2023-01-05T04:04:38;100483.19;;;6.54;92.31
77227;BME280;66234;47.642;19.144;2023-01-05T04:07:43;100470.06;;;6.52;91.80
77227;BME280;66234;47.642;19.144;2023-01-05T04:10:46;100479.34;;;6.56;91.86
77227;BME280;66234;47.642;19.144;2023-01-05T04:13:50;100457.06;;;6.57;91.57
77227;BME280;66234;47.642;19.144;2023-01-05T04:16:52;100473.56;;;6.76;90.74
77227;BME280;66234;47.642;19.144;2023-01-05T04:19:58;100466.47;;;6.91;90.32
77227;BME280;66234;47.642;19.144;2023-01-05T04:23:01;100471.19;;;7.03;89.80
77227;BME280;66234;47.642;19.144;2023-01-05T04:26:08;100462.50;;;7.09;89.22
77227;BME280;66234;47.642;19.144;2023-01-05T04:29:11;100457.84;;;7.11;88.96
77227;BME280;66234;47.642;19.144;2023-01-05T04:32:15;100449.59;;;7.21;88.26
77227;BME280;66234;47.642;19.144;2023-01-05T04:35:18;100428.16;;;7.22;88.16
77227;BME280;66234;47.642;19.144;2023-01-05T04:38:22;100426.03;;;7.18;88.32
77227;BME280;66234;47.642;19.144;2023-01-05T04:41:27;100430.53;;;7.17;88.71
77227;BME280;66234;47.642;19.144;2023-01-05T04:44:30;100421.50;;;7.04;89.42
77227;BME280;66234;47.642;19.144;2023-01-05T04:47:36;100424.59;;;6.93;89.78
77227;BME280;66234;47.642;19.144;2023-01-05T04:50:39;100433.13;;;7.03;89.94
77227;BME280;66234;47.642;19.144;2023-01-05T04:53:42;100435.00;;;7.02;89.59
77227;BME280;66234;47.642;19.144;2023-01-05T04:56:49;100425.16;;;7.03;89.44
77227;BME280;66234;47.642;19.144;2023-01-05T04:59:53;100435.06;;;6.94;90.09
77227;BME280;66234;47.642;19.144;2023-01-05T05:02:55;100436.84;;;6.79;90.69
77227;BME280;66234;47.642;19.144;2023-01-05T05:05:59;100433.22;;;6.72;91.12
77227;BME280;66234;47.642;19.144;2023-01-05T05:09:03;100434.59;;;6.68;91.11
77227;BME280;66234;47.642;19.144;2023-01-05T05:12:06;100434.88;;;6.73;91.18
77227;BME280;66234;47.642;19.144;2023-01-05T05:15:10;100426.53;;;6.76;90.90
77227;BME280;66234;47.642;19.144;2023-01-05T05:18:17;100425.25;;;6.72;90.85
77227;BME280;66234;47.642;19.144;2023-01-05T05:21:22;100426.38;;;6.78;90.92
77227;BME280;66234;47.642;19.144;2023-01-05T05:24:24;100418.28;;;6.94;90.03
77227;BME280;66234;47.642;19.144;2023-01-05T05:27:27;100420.84;;;7.02;89.32
77227;BME280;66234;47.642;19.144;2023-01-05T05:30:30;100399.19;;;6.90;89.98
77227;BME280;66234;47.642;19.144;2023-01-05T05:33:33;100398.66;;;6.95;89.35
77227;BME280;66234;47.642;19.144;2023-01-05T05:36:36;100399.44;;;7.32;87.73
77227;BME280;66234;47.642;19.144;2023-01-05T05:39:39;100408.63;;;7.44;87.09
77227;BME280;66234;47.642;19.144;2023-01-05T05:42:41;100409.16;;;7.69;85.56
77227;BME280;66234;47.642;19.144;2023-01-05T05:45:44;100408.25;;;7.62;85.98
77227;BME280;66234;47.642;19.144;2023-01-05T05:48:51;100414.41;;;7.48;86.83
77227;BME280;66234;47.642;19.144;2023-01-05T05:51:54;100418.44;;;7.29;87.17
77227;BME280;66234;47.642;19.144;2023-01-05T05:54:56;100402.72;;;7.05;87.91
77227;BME280;66234;47.642;19.144;2023-01-05T05:57:59;100407.44;;;6.81;89.51
77227;BME280;66234;47.642;19.144;2023-01-05T06:01:01;100399.53;;;6.50;90.44
77227;BME280;66234;47.642;19.144;2023-01-05T06:04:04;100391.78;;;6.40;90.49
77227;BME280;66234;47.642;19.144;2023-01-05T06:07:07;100411.56;;;6.38;91.05
77227;BME280;66234;47.642;19.144;2023-01-05T06:10:09;100401.88;;;6.22;91.68
77227;BME280;66234;47.642;19.144;2023-01-05T06:13:12;100397.56;;;6.21;91.99
77227;BME280;66234;47.642;19.144;2023-01-05T06:16:14;100397.97;;;6.10;92.33
77227;BME280;66234;47.642;19.144;2023-01-05T06:19:17;100403.97;;;6.04;92.23
77227;BME280;66234;47.642;19.144;2023-01-05T06:22:20;100397.75;;;6.20;92.02
77227;BME280;66234;47.642;19.144;2023-01-05T06:25:22;100399.59;;;6.11;92.09
77227;BME280;66234;47.642;19.144;2023-01-05T06:28:25;100385.97;;;6.14;92.08
77227;BME280;66234;47.642;19.144;2023-01-05T06:31:27;100377.84;;;6.16;92.06
77227;BME280;66234;47.642;19.144;2023-01-05T06:34:30;100385.34;;;6.12;92.03
77227;BME280;66234;47.642;19.144;2023-01-05T06:37:32;100366.13;;;6.10;91.96
77227;BME280;66234;47.642;19.144;2023-01-05T06:40:35;100371.41;;;6.10;92.20
77227;BME280;66234;47.642;19.144;2023-01-05T06:43:38;100369.28;;;6.06;92.29
77227;BME280;66234;47.642;19.144;2023-01-05T06:46:40;100371.28;;;6.04;92.46
77227;BME280;66234;47.642;19.144;2023-01-05T06:49:43;100360.66;;;6.04;92.26
77227;BME280;66234;47.642;19.144;2023-01-05T06:52:45;100357.84;;;6.05;92.46
77227;BME280;66234;47.642;19.144;2023-01-05T06:55:48;100356.97;;;6.13;92.20
77227;BME280;66234;47.642;19.144;2023-01-05T06:58:50;100351.44;;;6.22;91.64
77227;BME280;66234;47.642;19.144;2023-01-05T07:01:54;100344.13;;;6.24;91.80
77227;BME280;66234;47.642;19.144;2023-01-05T07:04:56;100336.63;;;6.28;91.49
77227;BME280;66234;47.642;19.144;2023-01-05T07:07:59;100334.78;;;6.28;91.45
77227;BME280;66234;47.642;19.144;2023-01-05T07:11:01;100324.69;;;6.24;91.48
77227;BME280;66234;47.642;19.144;2023-01-05T07:14:04;100331.81;;;6.23;91.58
77227;BME280;66234;47.642;19.144;2023-01-05T07:17:07;100340.28;;;6.27;91.65
77227;BME280;66234;47.642;19.144;2023-01-05T07:20:09;100331.91;;;6.38;91.05
77227;BME280;66234;47.642;19.144;2023-01-05T07:23:12;100318.72;;;6.44;90.80
77227;BME280;66234;47.642;19.144;2023-01-05T07:26:14;100334.00;;;6.65;89.73
77227;BME280;66234;47.642;19.144;2023-01-05T07:29:17;100313.38;;;6.67;89.84
77227;BME280;66234;47.642;19.144;2023-01-05T07:32:19;100318.53;;;6.83;89.62
77227;BME280;66234;47.642;19.144;2023-01-05T07:35:22;100297.94;;;6.85;89.05
77227;BME280;66234;47.642;19.144;2023-01-05T07:38:24;100291.22;;;6.89;88.86
77227;BME280;66234;47.642;19.144;2023-01-05T07:41:27;100288.09;;;6.86;89.18
77227;BME280;66234;47.642;19.144;2023-01-05T07:44:29;100286.28;;;6.86;89.66
77227;BME280;66234;47.642;19.144;2023-01-05T07:47:32;100287.13;;;6.87;89.56
77227;BME280;66234;47.642;19.144;2023-01-05T07:50:34;100286.19;;;6.94;88.81
77227;BME280;66234;47.642;19.144;2023-01-05T07:53:37;100269.88;;;6.97;88.82
77227;BME280;66234;47.642;19.144;2023-01-05T07:56:46;100266.78;;;7.08;88.62
77227;BME280;66234;47.642;19.144;2023-01-05T07:59:48;100266.03;;;7.14;88.88
77227;BME280;66234;47.642;19.144;2023-01-05T08:02:51;100274.16;;;7.42;87.98
77227;BME280;66234;47.642;19.144;2023-01-05T08:05:54;100273.28;;;7.70;86.97
77227;BME280;66234;47.642;19.144;2023-01-05T08:08:56;100271.66;;;8.11;85.31
77227;BME280;66234;47.642;19.144;2023-01-05T08:12:19;100268.53;;;8.50;84.03
77227;BME280;66234;47.642;19.144;2023-01-05T08:15:21;100270.63;;;8.55;83.89
77227;BME280;66234;47.642;19.144;2023-01-05T08:18:25;100277.03;;;8.39;84.55
77227;BME280;66234;47.642;19.144;2023-01-05T08:21:28;100275.63;;;8.22;84.92
77227;BME280;66234;47.642;19.144;2023-01-05T08:24:30;100278.59;;;8.12;85.37
77227;BME280;66234;47.642;19.144;2023-01-05T08:27:33;100275.72;;;8.07;85.96
77227;BME280;66234;47.642;19.144;2023-01-05T08:30:36;100285.34;;;8.08;85.22
77227;BME280;66234;47.642;19.144;2023-01-05T08:33:39;100287.28;;;8.00;85.89
77227;BME280;66234;47.642;19.144;2023-01-05T08:36:41;100289.91;;;7.93;85.54
77227;BME280;66234;47.642;19.144;2023-01-05T08:39:44;100278.81;;;7.90;86.09
77227;BME280;66234;47.642;19.144;2023-01-05T08:42:46;100273.94;;;7.93;86.07
77227;BME280;66234;47.642;19.144;2023-01-05T08:45:49;100277.75;;;8.05;85.75
77227;BME280;66234;47.642;19.144;2023-01-05T08:48:54;100282.09;;;8.13;85.66
77227;BME280;66234;47.642;19.144;2023-01-05T08:51:57;100275.38;;;8.17;85.44
77227;BME280;66234;47.642;19.144;2023-01-05T08:54:59;100296.28;;;8.20;85.57
77227;BME280;66234;47.642;19.144;2023-01-05T08:58:02;100304.84;;;8.15;85.48
77227;BME280;66234;47.642;19.144;2023-01-05T09:01:09;100306.16;;;8.19;85.80
77227;BME280;66234;47.642;19.144;2023-01-05T09:04:12;100297.69;;;8.30;85.77
77227;BME280;66234;47.642;19.144;2023-01-05T09:07:14;100270.16;;;8.51;85.20
77227;BME280;66234;47.642;19.144;2023-01-05T09:10:17;100289.22;;;8.48;85.79
77227;BME280;66234;47.642;19.144;2023-01-05T09:13:20;100285.69;;;8.41;85.79
77227;BME280;66234;47.642;19.144;2023-01-05T09:16:25;100279.78;;;8.46;85.78
77227;BME280;66234;47.642;19.144;2023-01-05T09:19:48;100289.16;;;8.42;84.87
77227;BME280;66234;47.642;19.144;2023-01-05T09:22:50;100287.25;;;8.57;84.62
77227;BME280;66234;47.642;19.144;2023-01-05T09:25:53;100289.56;;;8.66;84.36
77227;BME280;66234;47.642;19.144;2023-01-05T09:28:55;100298.25;;;8.75;83.93
77227;BME280;66234;47.642;19.144;2023-01-05T09:31:58;100297.16;;;8.97;82.78
77227;BME280;66234;47.642;19.144;2023-01-05T09:35:01;100286.41;;;9.18;81.96
77227;BME280;66234;47.642;19.144;2023-01-05T09:38:03;100248.81;;;9.13;82.94
77227;BME280;66234;47.642;19.144;2023-01-05T09:41:20;100263.63;;;9.15;82.70
77227;BME280;66234;47.642;19.144;2023-01-05T09:44:32;100262.53;;;9.03;83.90
77227;BME280;66234;47.642;19.144;2023-01-05T09:47:43;100237.66;;;8.96;83.65
77227;BME280;66234;47.642;19.144;2023-01-05T09:50:48;100246.09;;;9.00;84.40
77227;BME280;66234;47.642;19.144;2023-01-05T09:53:52;100245.13;;;8.73;84.85
77227;BME280;66234;47.642;19.144;2023-01-05T09:56:56;100241.31;;;8.55;85.64
77227;BME280;66234;47.642;19.144;2023-01-05T10:00:14;100243.31;;;8.46;85.24
77227;BME280;66234;47.642;19.144;2023-01-05T10:03:20;100259.22;;;8.67;84.70
77227;BME280;66234;47.642;19.144;2023-01-05T10:06:48;100259.22;;;8.67;84.28
77227;BME280;66234;47.642;19.144;2023-01-05T10:09:53;100266.88;;;8.77;83.84
77227;BME280;66234;47.642;19.144;2023-01-05T10:13:01;100297.31;;;8.89;83.63
77227;BME280;66234;47.642;19.144;2023-01-05T10:16:05;100318.34;;;9.05;82.82
77227;BME280;66234;47.642;19.144;2023-01-05T10:19:15;100310.56;;;9.10;84.51
77227;BME280;66234;47.642;19.144;2023-01-05T10:22:28;100325.91;;;9.01;85.65
77227;BME280;66234;47.642;19.144;2023-01-05T10:25:54;100307.53;;;8.85;86.88
77227;BME280;66234;47.642;19.144;2023-01-05T10:29:09;100306.59;;;8.99;87.81
77227;BME280;66234;47.642;19.144;2023-01-05T10:32:28;100299.44;;;9.34;86.34
77227;BME280;66234;47.642;19.144;2023-01-05T10:36:07;100296.06;;;9.66;85.44
77227;BME280;66234;47.642;19.144;2023-01-05T10:43:01;100297.31;;;9.63;87.00
77227;BME280;66234;47.642;19.144;2023-01-05T10:46:08;100292.19;;;9.75;85.66
77227;BME280;66234;47.642;19.144;2023-01-05T10:49:32;100294.91;;;9.81;84.53
77227;BME280;66234;47.642;19.144;2023-01-05T10:52:34;100289.09;;;9.71;84.63
77227;BME280;66234;47.642;19.144;2023-01-05T10:55:46;100312.66;;;9.55;85.54
77227;BME280;66234;47.642;19.144;2023-01-05T10:59:10;100289.00;;;9.39;87.08
77227;BME280;66234;47.642;19.144;2023-01-05T11:02:13;100300.88;;;9.36;88.00
77227;BME280;66234;47.642;19.144;2023-01-05T11:05:42;100293.88;;;9.29;87.66
77227;BME280;66234;47.642;19.144;2023-01-05T11:08:44;100314.97;;;9.24;88.44
77227;BME280;66234;47.642;19.144;2023-01-05T11:11:58;100296.56;;;9.35;86.87
77227;BME280;66234;47.642;19.144;2023-01-05T11:15:01;100303.69;;;9.28;87.99
77227;BME280;66234;47.642;19.144;2023-01-05T11:18:06;100295.50;;;9.30;87.27
77227;BME280;66234;47.642;19.144;2023-01-05T11:27:24;100285.09;;;9.41;84.92
77227;BME280;66234;47.642;19.144;2023-01-05T11:30:27;100290.28;;;9.49;84.97
77227;BME280;66234;47.642;19.144;2023-01-05T11:33:31;100291.06;;;9.50;84.79
77227;BME280;66234;47.642;19.144;2023-01-05T11:36:36;100292.34;;;9.54;82.14
77227;BME280;66234;47.642;19.144;2023-01-05T11:39:47;100293.59;;;9.64;83.55
77227;BME280;66234;47.642;19.144;2023-01-05T11:42:51;100284.56;;;9.65;82.97
77227;BME280;66234;47.642;19.144;2023-01-05T11:45:57;100278.63;;;9.63;82.22
77227;BME280;66234;47.642;19.144;2023-01-05T11:49:00;100266.69;;;9.59;83.62
77227;BME280;66234;47.642;19.144;2023-01-05T11:52:26;100261.75;;;9.56;82.74
77227;BME280;66234;47.642;19.144;2023-01-05T11:58:51;100263.59;;;9.62;81.83
77227;BME280;66234;47.642;19.144;2023-01-05T12:05:43;100264.22;;;9.58;83.66
77227;BME280;66234;47.642;19.144;2023-01-05T12:09:17;100272.00;;;9.53;84.21
77227;BME280;66234;47.642;19.144;2023-01-05T12:26:27;100323.66;;;9.73;83.29
77227;BME280;66234;47.642;19.144;2023-01-05T12:53:31;100241.72;;;9.86;83.21
77227;BME280;66234;47.642;19.144;2023-01-05T12:57:28;100233.09;;;9.91;81.09
77227;BME280;66234;47.642;19.144;2023-01-05T13:03:21;100217.81;;;9.65;83.69
77227;BME280;66234;47.642;19.144;2023-01-05T13:06:25;100213.28;;;9.59;81.91
77227;BME280;66234;47.642;19.144;2023-01-05T13:09:31;100223.38;;;9.57;82.49
77227;BME280;66234;47.642;19.144;2023-01-05T13:12:36;100234.44;;;9.54;82.64
77227;BME280;66234;47.642;19.144;2023-01-05T13:15:42;100231.13;;;9.46;83.28
77227;BME280;66234;47.642;19.144;2023-01-05T13:22:21;100245.69;;;9.43;84.04
77227;BME280;66234;47.642;19.144;2023-01-05T13:25:28;100250.63;;;9.46;83.93
77227;BME280;66234;47.642;19.144;2023-01-05T13:28:33;100247.09;;;9.39;84.71
77227;BME280;66234;47.642;19.144;2023-01-05T13:48:06;100287.13;;;9.39;83.90
77227;BME280;66234;47.642;19.144;2023-01-05T13:51:48;100284.22;;;9.34;82.02
77227;BME280;66234;47.642;19.144;2023-01-05T13:54:56;100288.31;;;9.30;82.59
77227;BME280;66234;47.642;19.144;2023-01-05T13:58:05;100286.44;;;9.24;81.68
77227;BME280;66234;47.642;19.144;2023-01-05T14:04:44;100300.97;;;9.15;82.31
77227;BME280;66234;47.642;19.144;2023-01-05T14:07:47;100303.78;;;9.07;81.90
77227;BME280;66234;47.642;19.144;2023-01-05T14:14:27;100305.16;;;8.97;82.41
77227;BME280;66234;47.642;19.144;2023-01-05T14:20:53;100315.59;;;8.92;82.16
77227;BME280;66234;47.642;19.144;2023-01-05T14:23:58;100315.28;;;9.08;80.91
77227;BME280;66234;47.642;19.144;2023-01-05T14:27:11;100317.03;;;8.94;81.95
77227;BME280;66234;47.642;19.144;2023-01-05T14:30:20;100315.94;;;8.82;82.36
77227;BME280;66234;47.642;19.144;2023-01-05T14:33:22;100312.72;;;8.93;81.38
77227;BME280;66234;47.642;19.144;2023-01-05T14:39:41;100312.06;;;8.85;80.27
77227;BME280;66234;47.642;19.144;2023-01-05T14:42:46;100306.41;;;9.01;79.07
77227;BME280;66234;47.642;19.144;2023-01-05T14:46:00;100308.34;;;9.13;78.77
77227;BME280;66234;47.642;19.144;2023-01-05T14:49:06;100300.38;;;9.20;76.45
77227;BME280;66234;47.642;19.144;2023-01-05T14:56:12;100308.25;;;9.34;75.39
77227;BME280;66234;47.642;19.144;2023-01-05T14:59:15;100310.06;;;9.27;75.02
77227;BME280;66234;47.642;19.144;2023-01-05T15:02:26;100331.72;;;9.45;73.90
77227;BME280;66234;47.642;19.144;2023-01-05T15:05:32;100328.22;;;9.45;73.50
77227;BME280;66234;47.642;19.144;2023-01-05T15:22:45;100330.75;;;9.19;74.36
77227;BME280;66234;47.642;19.144;2023-01-05T15:32:39;100324.31;;;8.79;76.97
77227;BME280;66234;47.642;19.144;2023-01-05T15:35:52;100328.88;;;8.85;76.52
77227;BME280;66234;47.642;19.144;2023-01-05T15:38:56;100320.59;;;8.74;77.26
77227;BME280;66234;47.642;19.144;2023-01-05T15:42:04;100329.19;;;8.76;76.83
77227;BME280;66234;47.642;19.144;2023-01-05T15:45:16;100333.47;;;8.70;77.30
77227;BME280;66234;47.642;19.144;2023-01-05T15:48:29;100336.28;;;8.90;75.06
77227;BME280;66234;47.642;19.144;2023-01-05T15:51:33;100331.41;;;8.93;75.00
77227;BME280;66234;47.642;19.144;2023-01-05T15:54:36;100344.47;;;8.88;75.47
77227;BME280;66234;47.642;19.144;2023-01-05T15:57:39;100339.88;;;9.03;74.99
77227;BME280;66234;47.642;19.144;2023-01-05T16:00:41;100342.53;;;8.76;76.38
77227;BME280;66234;47.642;19.144;2023-01-05T16:03:45;100352.38;;;8.54;78.46
77227;BME280;66234;47.642;19.144;2023-01-05T16:07:00;100357.81;;;8.40;79.06
77227;BME280;66234;47.642;19.144;2023-01-05T16:10:03;100355.41;;;8.45;78.14
77227;BME280;66234;47.642;19.144;2023-01-05T16:13:18;100348.16;;;8.38;78.94
77227;BME280;66234;47.642;19.144;2023-01-05T16:23:15;100359.94;;;8.29;78.73
77227;BME280;66234;47.642;19.144;2023-01-05T16:26:20;100333.13;;;8.31;78.38
77227;BME280;66234;47.642;19.144;2023-01-05T16:29:40;100353.72;;;8.44;78.39
77227;BME280;66234;47.642;19.144;2023-01-05T16:36:21;100354.88;;;8.20;79.18
77227;BME280;66234;47.642;19.144;2023-01-05T16:39:24;100362.66;;;8.15;79.17
77227;BME280;66234;47.642;19.144;2023-01-05T16:42:26;100360.38;;;8.12;79.12
77227;BME280;66234;47.642;19.144;2023-01-05T16:45:41;100363.03;;;8.12;79.05
77227;BME280;66234;47.642;19.144;2023-01-05T16:48:59;100360.38;;;8.12;78.99
77227;BME280;66234;47.642;19.144;2023-01-05T16:52:07;100368.78;;;8.30;77.65
77227;BME280;66234;47.642;19.144;2023-01-05T16:55:21;100364.00;;;8.25;77.60
77227;BME280;66234;47.642;19.144;2023-01-05T17:01:37;100361.63;;;8.16;77.68
77227;BME280;66234;47.642;19.144;2023-01-05T17:04:41;100363.91;;;8.19;77.63
77227;BME280;66234;47.642;19.144;2023-01-05T17:07:45;100384.00;;;8.21;77.17
77227;BME280;66234;47.642;19.144;2023-01-05T17:10:49;100384.84;;;8.22;76.71
77227;BME280;66234;47.642;19.144;2023-01-05T17:13:53;100373.53;;;8.20;76.53
77227;BME280;66234;47.642;19.144;2023-01-05T17:16:56;100371.94;;;8.40;75.12
77227;BME280;66234;47.642;19.144;2023-01-05T17:20:01;100378.78;;;8.28;75.90
77227;BME280;66234;47.642;19.144;2023-01-05T17:23:03;100382.28;;;8.14;76.73
77227;BME280;66234;47.642;19.144;2023-01-05T17:26:10;100376.56;;;8.17;76.29
77227;BME280;66234;47.642;19.144;2023-01-05T17:29:22;100400.25;;;8.41;74.37
77227;BME280;66234;47.642;19.144;2023-01-05T17:32:25;100386.97;;;8.69;73.77
77227;BME280;66234;47.642;19.144;2023-01-05T17:35:27;100389.31;;;8.78;73.65
77227;BME280;66234;47.642;19.144;2023-01-05T17:38:30;100383.22;;;8.84;72.41
77227;BME280;66234;47.642;19.144;2023-01-05T17:41:33;100388.09;;;9.02;71.44
77227;BME280;66234;47.642;19.144;2023-01-05T17:44:40;100407.09;;;9.20;70.23
77227;BME280;66234;47.642;19.144;2023-01-05T17:47:43;100403.41;;;9.21;70.95
77227;BME280;66234;47.642;19.144;2023-01-05T17:50:45;100412.41;;;9.47;68.85
77227;BME280;66234;47.642;19.144;2023-01-05T17:53:48;100401.09;;;9.45;69.07
77227;BME280;66234;47.642;19.144;2023-01-05T17:56:51;100389.31;;;9.33;69.74
77227;BME280;66234;47.642;19.144;2023-01-05T17:59:54;100405.06;;;9.22;70.61
77227;BME280;66234;47.642;19.144;2023-01-05T18:02:56;100410.72;;;9.12;70.81
77227;BME280;66234;47.642;19.144;2023-01-05T18:05:59;100417.22;;;9.03;71.14
77227;BME280;66234;47.642;19.144;2023-01-05T18:09:02;100399.69;;;8.94;71.14
77227;BME280;66234;47.642;19.144;2023-01-05T18:12:05;100404.13;;;9.08;70.68
77227;BME280;66234;47.642;19.144;2023-01-05T18:15:08;100410.34;;;9.15;70.39
77227;BME280;66234;47.642;19.144;2023-01-05T18:18:12;100405.59;;;9.11;70.49
77227;BME280;66234;47.642;19.144;2023-01-05T18:21:15;100403.13;;;9.09;70.29
77227;BME280;66234;47.642;19.144;2023-01-05T18:24:17;100385.84;;;9.05;70.34
77227;BME280;66234;47.642;19.144;2023-01-05T18:27:20;100399.16;;;9.05;70.59
77227;BME280;66234;47.642;19.144;2023-01-05T18:30:23;100406.69;;;9.23;69.19
77227;BME280;66234;47.642;19.144;2023-01-05T18:33:26;100426.59;;;9.20;69.83
77227;BME280;66234;47.642;19.144;2023-01-05T18:36:28;100419.72;;;9.11;69.94
77227;BME280;66234;47.642;19.144;2023-01-05T18:39:31;100418.88;;;9.04;69.94